Time;durP1;ratioP1;P1;durP2;ratioP2;P2;SDS_P1;SDS_P2;PMS_P1;PMS_P2;Temp;Humidity;BMP_temperature;BMP_pressure;BME280_temperature;BME280_humidity;BME280_pressure;Samples;Min_cycle;Max_cycle;Signal;HPM_P1;HPM_P2
2021/12/24 00:01:55;;;;;;;136.63;42.27;;;;;;;;;;5071557;28;20415;-70
2021/12/24 00:04:22;;;;;;;135.70;42.35;;;;;;;;;;5077697;28;20420;-70
2021/12/24 00:06:49;;;;;;;136.95;42.78;;;;;;;;;;5089337;28;20416;-70
2021/12/24 00:09:21;;;;;;;134.70;41.67;;;;;;;;;;5096399;28;20420;-71
2021/12/24 00:11:48;;;;;;;134.17;41.93;;;;;;;;;;5100158;28;20498;-71
2021/12/24 00:14:15;;;;;;;117.80;39.67;;;;;;;;;;5065049;28;20424;-71
2021/12/24 00:16:50;;;;;;;125.93;41.73;;;;;;;;;;5092472;28;20469;-71
2021/12/24 00:35:34;;;;;;;122.43;38.27;;;;;;;;;;5018872;28;20435;-71
2021/12/24 00:38:10;;;;;;;120.20;36.72;;;;;;;;;;5029055;28;20450;-71
2021/12/24 00:40:44;;;;;;;99.05;33.60;;;;;;;;;;5066257;28;20412;-71
2021/12/24 00:43:12;;;;;;;90.82;31.75;;;6.60;99.90;;;;;;5087752;28;20507;-71
2021/12/24 00:45:43;;;;;;;96.90;32.95;;;6.60;99.90;;;;;;5099077;28;20416;-71
2021/12/24 00:48:11;;;;;;;98.88;32.30;;;;;;;;;;5093260;28;20424;-71
2021/12/24 00:50:52;;;;;;;84.13;30.15;;;;;;;;;;5094601;28;20498;-70
2021/12/24 00:56:05;;;;;;;85.20;29.10;;;6.80;99.90;;;;;;5097742;28;20423;-70
2021/12/24 00:58:31;;;;;;;75.40;28.00;;;;;;;;;;5106150;28;20954;-70
2021/12/24 01:00:58;;;;;;;66.32;26.08;;;;;;;;;;5103486;28;20420;-70
2021/12/24 01:03:24;;;;;;;78.05;27.70;;;;;;;;;;5100846;28;20428;-73
2021/12/24 01:05:50;;;;;;;78.95;27.73;;;;;;;;;;5101465;28;20424;-73
2021/12/24 01:08:17;;;;;;;75.63;27.77;;;7.10;99.90;;;;;;5092540;28;20423;-73
2021/12/24 01:10:53;;;;;;;80.05;27.20;;;7.00;99.90;;;;;;5104259;28;21140;-74
2021/12/24 01:13:19;;;;;;;75.55;27.85;;;;;;;;;;5100235;28;20951;-74
2021/12/24 01:16:12;;;;;;;84.93;26.98;;;;;;;;;;5080150;28;20450;-74
2021/12/24 01:18:50;;;;;;;83.03;27.42;;;;;;;;;;5095593;28;20560;-74
2021/12/24 01:21:33;;;;;;;76.38;26.55;;;;;;;;;;5089105;28;20419;-74
2021/12/24 01:24:04;;;;;;;63.90;24.47;;;;;;;;;;5103391;28;20412;-74
2021/12/24 01:40:05;;;;;;;72.15;25.15;;;;;;;;;;5095148;28;21215;-74
2021/12/24 01:42:46;;;;;;;66.85;23.70;;;;;;;;;;5086718;28;20416;-73
2021/12/24 01:45:18;;;;;;;77.35;25.42;;;;;;;;;;5089350;28;20408;-73
2021/12/24 01:47:44;;;;;;;69.07;23.83;;;;;;;;;;5093888;28;20410;-73
2021/12/24 01:50:10;;;;;;;76.67;25.40;;;;;;;;;;5090450;28;20477;-72
2021/12/24 01:52:38;;;;;;;75.03;24.98;;;;;;;;;;5080298;28;20411;-73
2021/12/24 01:55:04;;;;;;;73.68;24.48;;;;;;;;;;5105129;28;20511;-74
2021/12/24 01:57:32;;;;;;;78.07;25.00;;;;;;;;;;5085786;28;20420;-74
2021/12/24 01:59:58;;;;;;;73.22;24.27;;;;;;;;;;5098404;28;20412;-74
2021/12/24 02:02:24;;;;;;;82.45;25.30;;;;;;;;;;5087581;28;20420;-74
2021/12/24 02:04:51;;;;;;;72.45;22.88;;;;;;;;;;5099220;28;20900;-74
2021/12/24 02:07:17;;;;;;;72.25;23.48;;;;;;;;;;5101481;28;20430;-74
2021/12/24 02:09:43;;;;;;;65.03;22.75;;;;;;;;;;5104837;28;20416;-74
2021/12/24 02:12:10;;;;;;;63.15;21.63;;;;;;;;;;5091770;28;20420;-73
2021/12/24 02:14:38;;;;;;;65.57;22.70;;;;;;;;;;5082988;28;20498;-73
2021/12/24 02:17:26;;;;;;;59.50;21.30;;;;;;;;;;5092079;28;20417;-73
2021/12/24 02:30:43;;;;;;;43.40;17.48;;;;;;;;;;5094678;28;20411;-74
2021/12/24 02:33:10;;;;;;;45.28;17.23;;;;;;;;;;5091812;28;20474;-74
2021/12/24 02:35:38;;;;;;;46.50;17.55;;;;;;;;;;5070079;28;20422;-74
2021/12/24 02:38:05;;;;;;;48.40;17.95;;;;;;;;;;5103655;28;20424;-74
2021/12/24 02:40:31;;;;;;;44.75;17.73;;;;;;;;;;5103252;28;20422;-74
2021/12/24 02:42:58;;;;;;;44.40;17.30;;;;;;;;;;5074168;28;20423;-73
2021/12/24 02:45:26;;;;;;;39.40;16.38;;;7.60;99.90;;;;;;5086137;28;20834;-73
2021/12/24 02:56:10;;;;;;;47.83;17.48;;;;;;;;;;5097437;28;20433;-73
2021/12/24 02:58:39;;;;;;;49.47;17.60;;;;;;;;;;5077613;28;20498;-73
2021/12/24 03:01:06;;;;;;;70.18;21.52;;;;;;;;;;5096694;28;20442;-73
2021/12/24 03:03:32;;;;;;;50.20;19.38;;;;;;;;;;5095994;28;20872;-73
2021/12/24 03:05:58;;;;;;;65.20;21.73;;;;;;;;;;5107050;28;20969;-74
2021/12/24 03:08:24;;;;;;;70.15;23.05;;;;;;;;;;5082278;28;20785;-74
2021/12/24 03:10:52;;;;;;;69.93;23.50;;;;;;;;;;5081118;28;20425;-75
2021/12/24 03:13:19;;;;;;;86.22;24.17;;;;;;;;;;5097598;28;20427;-74
2021/12/24 03:15:47;;;;;;;82.10;24.93;;;;;;;;;;5105002;28;20424;-74
2021/12/24 03:18:21;;;;;;;76.07;24.70;;;;;;;;;;5094299;28;20799;-74
2021/12/24 03:20:47;;;;;;;78.15;25.73;;;;;;;;;;5095010;28;20453;-74
2021/12/24 03:23:33;;;;;;;89.30;26.95;;;;;;;;;;5090589;28;20423;-74
2021/12/24 03:25:59;;;;;;;80.37;25.30;;;;;;;;;;5091647;28;20521;-75
2021/12/24 03:28:25;;;;;;;73.90;25.15;;;;;;;;;;5101905;28;20901;-75
2021/12/24 03:30:52;;;;;;;76.38;25.25;;;;;;;;;;5087441;28;20507;-74
2021/12/24 03:33:18;;;;;;;71.25;25.02;;;;;;;;;;5106972;28;20931;-73
2021/12/24 03:35:44;;;;;;;71.13;24.70;;;;;;;;;;5108392;28;20475;-73
2021/12/24 03:38:10;;;;;;;77.40;24.60;;;;;;;;;;5103543;28;20496;-73
2021/12/24 03:40:36;;;;;;;77.90;24.48;;;;;;;;;;5097879;28;20419;-74
2021/12/24 03:43:02;;;;;;;78.90;24.33;;;;;;;;;;5098931;28;20933;-72
2021/12/24 03:45:37;;;;;;;79.40;25.67;;;;;;;;;;5086348;28;20463;-73
2021/12/24 03:48:14;;;;;;;87.20;26.00;;;;;;;;;;5105864;28;20434;-73
2021/12/24 03:50:53;;;;;;;88.97;27.77;;;;;;;;;;5099882;28;20992;-74
2021/12/24 03:56:04;;;;;;;97.70;27.30;;;;;;;;;;5108327;28;20450;-73
2021/12/24 03:58:30;;;;;;;79.60;26.15;;;;;;;;;;5104867;28;20413;-72
2021/12/24 04:00:56;;;;;;;79.82;26.15;;;;;;;;;;5097507;28;20947;-73
2021/12/24 04:03:22;;;;;;;85.63;27.50;;;;;;;;;;5099569;28;20421;-73
2021/12/24 04:05:49;;;;;;;97.50;31.98;;;;;;;;;;5090061;28;20424;-73
2021/12/24 04:08:15;;;;;;;106.13;33.83;;;;;;;;;;5098821;28;20812;-74
2021/12/24 04:10:41;;;;;;;119.35;35.80;;;;;;;;;;5082510;28;20415;-74
2021/12/24 04:13:13;;;;;;;113.95;35.85;;;8.70;99.90;;;;;;5100477;28;20420;-74
2021/12/24 04:15:39;;;;;;;118.40;37.25;;;;;;;;;;5100411;28;20408;-74
2021/12/24 04:18:13;;;;;;;119.72;37.30;;;8.70;99.90;;;;;;5071784;28;20422;-75
2021/12/24 04:26:09;;;;;;;93.10;35.15;;;;;;;;;;5101044;28;20410;-75
2021/12/24 04:28:35;;;;;;;102.35;37.15;;;;;;;;;;5103137;28;20907;-75
2021/12/24 04:31:02;;;;;;;107.95;36.47;;;;;;;;;;5104686;28;20461;-74
2021/12/24 04:33:36;;;;;;;100.18;36.67;;;;;;;;;;5101247;28;20420;-74
2021/12/24 04:36:43;;;;;;;99.05;36.10;;;8.80;99.90;;;;;;5097757;28;20431;-74
2021/12/24 05:03:35;;;;;;;79.68;32.10;;;;;;;;;;5100543;28;20428;-74
2021/12/24 05:06:16;;;;;;;82.70;32.30;;;;;;;;;;5082106;28;20455;-74
2021/12/24 05:08:50;;;;;;;84.30;32.45;;;;;;;;;;5095805;28;20912;-74
2021/12/24 05:11:17;;;;;;;97.65;33.97;;;;;;;;;;5106041;28;20934;-73
2021/12/24 05:13:43;;;;;;;95.40;35.47;;;;;;;;;;5099297;28;20506;-74
2021/12/24 05:16:44;;;;;;;93.28;34.72;;;;;;;;;;5092363;28;20442;-74
2021/12/24 05:21:33;;;;;;;82.95;31.67;;;;;;;;;;5078993;28;20420;-74
2021/12/24 05:21:51;;;;;;;72.40;31.23;;;;;;;;;;5090322;28;20408;-74
2021/12/24 05:24:18;;;;;;;79.93;31.25;;;;;;;;;;5099727;28;20471;-74
2021/12/24 05:26:45;;;;;;;75.07;30.48;;;;;;;;;;5090933;28;20422;-74
2021/12/24 05:29:12;;;;;;;79.50;30.63;;;;;;;;;;5097020;28;20423;-75
2021/12/24 05:31:39;;;;;;;71.93;29.60;;;;;;;;;;5087776;28;20422;-74
2021/12/24 05:34:05;;;;;;;72.78;29.95;;;;;;;;;;5095351;28;20451;-74
2021/12/24 05:36:31;;;;;;;73.00;29.53;;;;;;;;;;5100025;28;20427;-74
2021/12/24 05:38:57;;;;;;;85.65;28.80;;;;;;;;;;5090261;28;20506;-73
2021/12/24 05:41:24;;;;;;;68.95;26.65;;;;;;;;;;5098786;28;20413;-73
2021/12/24 05:43:50;;;;;;;69.20;27.73;;;;;;;;;;5076707;28;20429;-72
2021/12/24 05:46:16;;;;;;;68.93;26.17;;;;;;;;;;5106352;28;20523;-74
2021/12/24 05:48:42;;;;;;;56.87;24.40;;;;;;;;;;5095588;28;20473;-73
2021/12/24 05:51:10;;;;;;;57.10;24.42;;;;;;;;;;5071186;28;20918;-73
2021/12/24 05:53:36;;;;;;;63.15;25.45;;;;;;;;;;5098418;28;20515;-73
2021/12/24 05:56:02;;;;;;;61.15;23.42;;;;;;;;;;5096949;28;20446;-74
2021/12/24 05:58:28;;;;;;;58.05;22.65;;;;;;;;;;5072169;28;20408;-74
2021/12/24 06:00:55;;;;;;;55.50;22.40;;;;;;;;;;5086813;28;20499;-73
2021/12/24 06:03:21;;;;;;;53.65;21.98;;;;;;;;;;5102484;28;20419;-73
2021/12/24 06:05:47;;;;;;;52.38;20.88;;;;;;;;;;5100564;28;20886;-73
2021/12/24 06:08:13;;;;;;;46.25;19.83;;;;;;;;;;5071116;28;20594;-72
2021/12/24 06:10:41;;;;;;;47.15;20.73;;;;;;;;;;5107400;28;20420;-75
2021/12/24 06:13:07;;;;;;;50.58;19.63;;;;;;;;;;5088506;28;20501;-74
2021/12/24 06:15:41;;;;;;;49.40;20.52;;;;;;;;;;5095403;28;20894;-75
2021/12/24 06:18:19;;;;;;;55.00;21.83;;;;;;;;;;5077347;28;20425;-75
2021/12/24 06:20:45;;;;;;;64.00;20.00;;;;;;;;;;5082266;28;20420;-75
2021/12/24 06:23:11;;;;;;;55.05;20.92;;;;;;;;;;5101754;28;20898;-74
2021/12/24 06:25:37;;;;;;;55.72;21.02;;;;;;;;;;5107243;28;20528;-74
2021/12/24 06:28:03;;;;;;;52.45;20.30;;;;;;;;;;5082482;28;20413;-73
2021/12/24 06:30:30;;;;;;;49.20;19.73;;;;;;;;;;5092445;28;20489;-74
2021/12/24 06:32:57;;;;;;;53.47;19.02;;;;;;;;;;5101500;28;20771;-73
2021/12/24 06:35:24;;;;;;;54.28;19.98;;;;;;;;;;5106090;28;20540;-74
2021/12/24 06:37:51;;;;;;;47.10;17.92;;;;;;;;;;5079252;28;20422;-73
2021/12/24 06:40:17;;;;;;;47.75;18.75;;;;;;;;;;5096333;28;20467;-73
2021/12/24 06:42:43;;;;;;;45.08;18.20;;;;;;;;;;5077401;28;20976;-74
2021/12/24 06:45:09;;;;;;;46.83;17.90;;;;;;;;;;5103885;28;20488;-73
2021/12/24 06:47:35;;;;;;;47.40;17.98;;;;;;;;;;5102479;28;20412;-74
2021/12/24 06:50:01;;;;;;;43.90;17.63;;;;;;;;;;5090702;28;20412;-75
2021/12/24 06:52:27;;;;;;;49.83;17.98;;;;;;;;;;5105379;28;20421;-74
2021/12/24 06:54:54;;;;;;;45.63;16.77;;;;;;;;;;5090495;28;20426;-74
2021/12/24 06:57:22;;;;;;;56.72;18.30;;;;;;;;;;5086084;28;20450;-74
2021/12/24 06:59:48;;;;;;;48.00;18.58;;;;;;;;;;5081615;28;20412;-74
2021/12/24 07:02:14;;;;;;;54.75;18.63;;;;;;;;;;5090185;28;20483;-74
2021/12/24 07:04:41;;;;;;;47.85;17.85;;;;;;;;;;5080732;28;20416;-74
2021/12/24 07:07:07;;;;;;;47.63;17.42;;;;;;;;;;5082975;28;20944;-75
2021/12/24 07:09:33;;;;;;;45.90;17.13;;;;;;;;;;5096876;28;20449;-74
2021/12/24 07:11:59;;;;;;;42.50;17.23;;;;;;;;;;5099807;28;20419;-75
2021/12/24 07:14:25;;;;;;;48.97;17.45;;;;;;;;;;5079669;28;20422;-75
2021/12/24 07:16:52;;;;;;;50.00;17.23;;;;;;;;;;5101331;28;20634;-74
2021/12/24 07:19:18;;;;;;;43.13;15.32;;;;;;;;;;5087655;28;20876;-75
2021/12/24 07:21:44;;;;;;;44.17;16.23;;;;;;;;;;5073728;28;20921;-73
2021/12/24 07:24:10;;;;;;;47.47;16.30;;;;;;;;;;5085655;28;20412;-73
2021/12/24 07:26:36;;;;;;;47.42;16.70;;;;;;;;;;5104737;28;20585;-73
2021/12/24 07:29:03;;;;;;;43.15;15.65;;;;;;;;;;5103770;28;20420;-73
2021/12/24 07:31:29;;;;;;;46.28;16.10;;;;;;;;;;5103775;28;20480;-73
2021/12/24 07:33:55;;;;;;;44.38;15.13;;;;;;;;;;5081021;28;20428;-74
2021/12/24 07:36:21;;;;;;;42.90;16.30;;;;;;;;;;5099788;28;20962;-73
2021/12/24 07:38:47;;;;;;;43.42;14.85;;;;;;;;;;5103648;28;20511;-74
2021/12/24 07:41:15;;;;;;;43.00;15.50;;;;;;;;;;5087634;28;20415;-73
2021/12/24 07:43:41;;;;;;;37.72;14.27;;;;;;;;;;5108332;28;20826;-74
2021/12/24 07:46:07;;;;;;;44.67;14.38;;;;;;;;;;5091872;28;20458;-73
2021/12/24 07:48:43;;;;;;;34.63;13.45;;;;;;;;;;5084061;28;20427;-74
2021/12/24 07:53:35;;;;;;;40.92;13.52;;;;;;;;;;5103903;28;20440;-73
2021/12/24 07:56:01;;;;;;;42.28;14.05;;;;;;;;;;5105628;28;20424;-73
2021/12/24 07:58:27;;;;;;;38.70;12.88;;;;;;;;;;5085889;28;21018;-73
2021/12/24 08:00:53;;;;;;;41.72;13.13;;;;;;;;;;5091836;28;20473;-73
2021/12/24 08:03:20;;;;;;;34.50;12.40;;;;;;;;;;5094422;28;20486;-73
2021/12/24 08:05:48;;;;;;;35.88;11.68;;;;;;;;;;5077261;28;20745;-73
2021/12/24 08:08:14;;;;;;;37.72;12.35;;;;;;;;;;5079748;28;20442;-72
2021/12/24 08:10:41;;;;;;;38.33;12.30;;;;;;;;;;5107441;28;20426;-73
2021/12/24 08:13:07;;;;;;;39.90;12.30;;;8.30;99.90;;;;;;5093609;28;21066;-72
2021/12/24 08:15:34;;;;;;;43.53;12.45;;;;;;;;;;5082729;28;20503;-73
2021/12/24 08:18:00;;;;;;;35.57;12.13;;;;;;;;;;5103637;28;20953;-73
2021/12/24 08:20:27;;;;;;;32.75;11.52;;;;;;;;;;5099745;28;20416;-73
2021/12/24 08:22:54;;;;;;;40.47;11.52;;;;;;;;;;5076536;28;20409;-74
2021/12/24 08:25:21;;;;;;;37.13;11.18;;;;;;;;;;5089542;28;20423;-73
2021/12/24 08:27:47;;;;;;;37.53;11.20;;;;;;;;;;5102654;28;20447;-73
2021/12/24 08:30:14;;;;;;;35.83;10.90;;;;;;;;;;5105850;28;20423;-73
2021/12/24 08:32:41;;;;;;;28.60;10.00;;;;;;;;;;5081466;28;20427;-74
2021/12/24 08:35:09;;;;;;;34.78;10.40;;;;;;;;;;5074085;28;20419;-74
2021/12/24 08:37:35;;;;;;;33.63;11.02;;;;;;;;;;5108825;28;20416;-73
2021/12/24 08:40:01;;;;;;;25.90;9.98;;;;;;;;;;5104030;28;20938;-73
2021/12/24 08:42:27;;;;;;;32.40;10.93;;;;;;;;;;5100281;28;20487;-74
2021/12/24 08:44:54;;;;;;;30.87;10.10;;;;;;;;;;5079673;28;20471;-73
2021/12/24 08:47:20;;;;;;;24.27;10.68;;;;;;;;;;5085539;28;20753;-73
2021/12/24 08:49:46;;;;;;;28.77;11.07;;;;;;;;;;5104893;28;20503;-73
2021/12/24 08:52:12;;;;;;;26.02;10.18;;;;;;;;;;5108482;28;20408;-73
2021/12/24 08:54:38;;;;;;;28.17;11.23;;;;;;;;;;5076430;28;20433;-74
2021/12/24 08:57:04;;;;;;;26.10;10.70;;;;;;;;;;5089351;28;20518;-74
2021/12/24 08:59:30;;;;;;;28.90;10.73;;;;;;;;;;5099368;28;20423;-73
2021/12/24 09:01:58;;;;;;;25.35;10.73;;;;;;;;;;5106918;28;20416;-73
2021/12/24 09:04:25;;;;;;;27.85;10.95;;;;;;;;;;5099002;28;20416;-73
2021/12/24 09:06:51;;;;;;;42.85;11.20;;;;;;;;;;5093867;28;20585;-73
2021/12/24 09:09:17;;;;;;;29.25;10.93;;;;;;;;;;5088024;28;20499;-73
2021/12/24 09:11:44;;;;;;;27.17;10.85;;;;;;;;;;5096360;28;20478;-73
2021/12/24 09:14:10;;;;;;;26.52;11.65;;;;;;;;;;5094933;28;20544;-74
2021/12/24 09:16:37;;;;;;;34.80;12.20;;;;;;;;;;5102092;28;20924;-74
2021/12/24 09:19:08;;;;;;;34.08;12.85;;;;;;;;;;5099161;28;20998;-74
2021/12/24 09:21:35;;;;;;;36.30;12.77;;;;;;;;;;5092108;28;20416;-73
2021/12/24 09:24:02;;;;;;;38.25;14.30;;;;;;;;;;5089231;28;20420;-74
2021/12/24 09:26:32;;;;;;;40.38;14.27;;;;;;;;;;5082443;28;20420;-74
2021/12/24 09:28:58;;;;;;;40.40;14.07;;;;;;;;;;5100010;28;20418;-74
2021/12/24 09:31:25;;;;;;;44.17;14.98;;;;;;;;;;5105381;28;20850;-74
2021/12/24 09:33:51;;;;;;;35.20;14.07;;;;;;;;;;5097519;28;20949;-74
2021/12/24 09:36:23;;;;;;;37.95;12.50;;;;;;;;;;5099248;28;20900;-73
2021/12/24 09:38:49;;;;;;;26.05;10.80;;;;;;;;;;5068227;28;20492;-74
2021/12/24 09:41:16;;;;;;;27.42;10.77;;;;;;;;;;5092307;28;20500;-73
2021/12/24 09:43:42;;;;;;;26.33;10.27;;;;;;;;;;5099869;28;20806;-72
2021/12/24 09:46:08;;;;;;;26.70;9.88;;;;;;;;;;5100490;28;20422;-75
2021/12/24 09:48:34;;;;;;;28.45;10.18;;;;;;;;;;5102308;28;20657;-73
2021/12/24 09:51:01;;;;;;;23.63;9.70;;;;;;;;;;5085635;28;20427;-74
2021/12/24 09:53:27;;;;;;;29.92;10.15;;;;;;;;;;5082401;28;20503;-73
2021/12/24 09:55:53;;;;;;;24.02;8.60;;;;;;;;;;5103394;28;20823;-74
2021/12/24 09:58:19;;;;;;;22.38;8.50;;;;;;;;;;5107114;28;20412;-74
2021/12/24 10:00:45;;;;;;;22.60;7.97;;;;;;;;;;5096924;28;20416;-73
2021/12/24 10:03:11;;;;;;;19.75;7.60;;;;;;;;;;5087784;28;20435;-73
2021/12/24 10:05:42;;;;;;;17.20;7.55;;;;;;;;;;5093029;28;20955;-74
2021/12/24 10:08:08;;;;;;;16.88;7.28;;;;;;;;;;5097427;28;20418;-73
2021/12/24 10:10:35;;;;;;;19.90;7.00;;;;;;;;;;5082907;28;20418;-75
2021/12/24 10:13:20;;;;;;;18.40;6.95;;;;;;;;;;5103547;28;20499;-74
2021/12/24 10:15:53;;;;;;;17.50;7.20;;;;;;;;;;5084754;28;20440;-72
2021/12/24 10:18:33;;;;;;;14.20;6.38;;;;;;;;;;5091413;28;20422;-73
2021/12/24 10:21:20;;;;;;;14.73;6.38;;;;;;;;;;5071958;28;20825;-74
2021/12/24 10:23:51;;;;;;;10.32;5.28;;;;;;;;;;5089387;28;20416;-75
2021/12/24 10:26:22;;;;;;;9.18;5.30;;;;;;;;;;5103921;28;20416;-74
2021/12/24 10:29:07;;;;;;;8.33;4.57;;;;;;;;;;5072780;28;20419;-75
2021/12/24 10:31:53;;;;;;;6.38;3.70;;;;;;;;;;5079234;28;20455;-75
2021/12/24 10:34:22;;;;;;;4.20;2.60;;;;;;;;;;5091162;28;20416;-75
2021/12/24 10:36:52;;;;;;;4.53;2.90;;;;;;;;;;5078331;28;20446;-75
2021/12/24 10:39:19;;;;;;;5.82;2.97;;;;;;;;;;5087481;28;20480;-75
2021/12/24 10:41:46;;;;;;;7.15;4.03;;;;;;;;;;5098089;28;20872;-73
2021/12/24 10:44:17;;;;;;;5.20;3.63;;;;;;;;;;5097539;28;20470;-73
2021/12/24 10:47:02;;;;;;;6.53;4.13;;;;;;;;;;5090494;28;20428;-74
2021/12/24 10:54:56;;;;;;;7.20;4.45;;;;;;;;;;5090330;28;20477;-72
2021/12/24 10:57:31;;;;;;;8.60;4.70;;;7.00;99.90;;;;;;5097631;28;20416;-73
2021/12/24 11:00:00;;;;;;;9.73;5.30;;;;;;;;;;5059698;28;20423;-73
2021/12/24 11:02:30;;;;;;;9.75;5.50;;;;;;;;;;5071337;28;20885;-73
2021/12/24 11:04:57;;;;;;;7.53;5.53;;;;;;;;;;5073013;28;20402;-73
2021/12/24 11:07:32;;;;;;;10.53;6.00;;;;;;;;;;5089398;28;20412;-73
2021/12/24 11:10:11;;;;;;;9.68;5.95;;;6.60;99.90;;;;;;5071022;28;20430;-73
2021/12/24 11:12:38;;;;;;;8.77;5.70;;;;;;;;;;5099390;28;20412;-73
2021/12/24 11:15:23;;;;;;;9.07;5.70;;;;;;;;;;5101529;28;20420;-74
2021/12/24 11:17:50;;;;;;;9.23;5.93;;;;;;;;;;5094684;28;20944;-75
2021/12/24 11:20:16;;;;;;;10.52;6.45;;;;;;;;;;5069556;28;20828;-75
2021/12/24 11:23:00;;;;;;;8.07;4.97;;;;;;;;;;5097040;28;20422;-75
2021/12/24 11:25:28;;;;;;;6.35;4.13;;;;;;;;;;5104741;28;20465;-74
2021/12/24 11:27:54;;;;;;;5.50;3.28;;;;;;;;;;5089349;28;20416;-74
2021/12/24 11:30:21;;;;;;;5.40;3.60;;;;;;;;;;5083612;28;20418;-74
2021/12/24 11:32:48;;;;;;;6.28;3.80;;;;;;;;;;5087690;28;20434;-73
2021/12/24 11:35:14;;;;;;;4.88;3.40;;;;;;;;;;5102927;28;20435;-74
2021/12/24 11:37:44;;;;;;;5.00;3.05;;;;;;;;;;5095443;28;20420;-74
2021/12/24 11:40:10;;;;;;;4.25;3.17;;;;;;;;;;5062510;28;20426;-75
2021/12/24 11:42:39;;;;;;;4.90;3.10;;;;;;;;;;5091687;28;20431;-74
2021/12/24 11:45:06;;;;;;;5.63;3.30;;;;;;;;;;5106322;28;20565;-75
2021/12/24 11:47:32;;;;;;;5.70;4.10;;;;;;;;;;5101575;28;20430;-74
2021/12/24 11:49:59;;;;;;;6.18;4.13;;;;;;;;;;5090460;28;20934;-74
2021/12/24 11:52:27;;;;;;;6.73;4.67;;;;;;;;;;5100355;28;20418;-75
2021/12/24 11:54:57;;;;;;;6.30;4.47;;;;;;;;;;5105470;28;20469;-74
2021/12/24 11:57:24;;;;;;;6.20;4.43;;;;;;;;;;5098677;28;20427;-74
2021/12/24 11:59:51;;;;;;;5.40;4.22;;;;;;;;;;5084413;28;20416;-73
2021/12/24 12:02:36;;;;;;;7.13;4.23;;;;;;;;;;5105673;28;20420;-73
2021/12/24 12:05:15;;;;;;;5.72;4.10;;;;;;;;;;5090739;28;20420;-74
2021/12/24 12:07:41;;;;;;;5.60;4.03;;;;;;;;;;5101199;28;20419;-73
2021/12/24 12:10:08;;;;;;;7.65;4.47;;;;;;;;;;5098172;28;20914;-73
2021/12/24 12:12:35;;;;;;;6.40;4.32;;;;;;;;;;5103498;28;20410;-74
2021/12/24 12:15:20;;;;;;;6.82;4.25;;;;;;;;;;5078935;28;20508;-74
2021/12/24 12:17:51;;;;;;;5.77;4.20;;;;;;;;;;5078908;28;20460;-74
2021/12/24 12:20:41;;;;;;;5.97;4.60;;;;;;;;;;5094354;28;20404;-74
2021/12/24 12:23:14;;;;;;;6.40;4.70;;;;;;;;;;5062545;28;20424;-73
2021/12/24 12:25:40;;;;;;;7.97;4.83;;;;;;;;;;5077847;28;20497;-73
2021/12/24 12:28:12;;;;;;;7.15;4.72;;;;;;;;;;5082619;28;20765;-73
2021/12/24 12:30:52;;;;;;;7.05;4.70;;;;;;;;;;5081335;28;20420;-74
2021/12/24 12:33:19;;;;;;;7.57;5.25;;;;;;;;;;5080939;28;20416;-75
2021/12/24 12:35:45;;;;;;;7.88;5.35;;;;;;;;;;5084539;28;20429;-75
2021/12/24 12:38:27;;;;;;;8.23;5.20;;;;;;;;;;5082333;28;20545;-73
2021/12/24 12:40:53;;;;;;;7.80;5.63;;;;;;;;;;5087658;28;20408;-74
2021/12/24 12:43:20;;;;;;;7.22;5.03;;;;;;;;;;5095304;28;20557;-73
2021/12/24 12:45:48;;;;;;;8.45;6.20;;;;;;;;;;5101441;28;20430;-72
2021/12/24 12:48:22;;;;;;;8.55;6.38;;;;;;;;;;5086709;28;20899;-74
2021/12/24 12:50:53;;;;;;;8.00;5.75;;;;;;;;;;5078291;28;20433;-73
2021/12/24 12:53:22;;;;;;;7.33;5.60;;;;;;;;;;5098663;28;20960;-73
2021/12/24 12:55:49;;;;;;;8.02;5.88;;;;;;;;;;5100433;28;20410;-73
2021/12/24 12:58:20;;;;;;;8.68;5.55;;;;;;;;;;5093574;28;20457;-74
2021/12/24 13:01:06;;;;;;;7.82;5.90;;;;;;;;;;5099090;28;20422;-74
2021/12/24 13:03:33;;;;;;;8.52;6.03;;;;;;;;;;5102445;28;20416;-74
2021/12/24 13:06:04;;;;;;;7.45;5.20;;;;;;;;;;5082539;28;20438;-74
2021/12/24 13:08:35;;;;;;;7.53;5.13;;;;;;;;;;5069009;28;20407;-74
2021/12/24 13:11:12;;;;;;;6.20;4.33;;;;;;;;;;5080961;28;20776;-73
2021/12/24 13:14:00;;;;;;;6.32;4.20;;;;;;;;;;5082260;28;20424;-73
2021/12/24 13:16:30;;;;;;;8.20;4.90;;;;;;;;;;5090520;28;20451;-74
2021/12/24 13:19:57;;;;;;;9.10;5.18;;;;;;;;;;5080027;28;20458;-74
2021/12/24 13:25:04;;;;;;;6.47;4.45;;;6.40;99.90;;;;;;5092322;28;20517;-73
2021/12/24 13:27:33;;;;;;;7.15;4.95;;;;;;;;;;5097401;28;20486;-74
2021/12/24 13:30:05;;;;;;;8.27;6.25;;;;;;;;;;5079125;28;20773;-73
2021/12/24 13:32:31;;;;;;;7.28;5.28;;;;;;;;;;5105741;28;20434;-73
2021/12/24 13:34:58;;;;;;;6.38;4.57;;;;;;;;;;5082434;28;20776;-73
2021/12/24 13:37:30;;;;;;;7.73;4.90;;;;;;;;;;5083003;28;20499;-73
2021/12/24 13:39:56;;;;;;;7.32;5.25;;;;;;;;;;5087896;28;20420;-72
2021/12/24 13:42:22;;;;;;;6.13;4.80;;;;;;;;;;5089343;28;20759;-73
2021/12/24 13:44:50;;;;;;;7.82;5.10;;;;;;;;;;5090847;28;20426;-73
2021/12/24 13:47:44;;;;;;;7.75;5.30;;;;;;;;;;5079356;28;20900;-74
2021/12/24 13:55:32;;;;;;;8.13;5.13;;;;;;;;;;5089772;28;20521;-73
2021/12/24 13:58:01;;;;;;;12.20;6.63;;;7.10;99.90;;;;;;5083682;28;20429;-73
2021/12/24 14:00:29;;;;;;;12.05;7.05;;;;;;;;;;5086880;28;20414;-73
2021/12/24 14:02:56;;;;;;;11.73;6.85;;;;;;;;;;5077818;28;20902;-74
2021/12/24 14:05:22;;;;;;;9.68;6.35;;;;;;;;;;5103593;28;20416;-72
2021/12/24 14:08:07;;;;;;;9.63;6.65;;;;;;;;;;5080047;28;20936;-74
2021/12/24 14:10:33;;;;;;;11.00;7.05;;;;;;;;;;5080162;28;20427;-73
2021/12/24 14:13:13;;;;;;;10.60;5.83;;;;;;;;;;5059677;28;20458;-73
2021/12/24 14:15:52;;;;;;;8.35;5.85;;;;;;;;;;5081996;28;20422;-72
2021/12/24 14:18:32;;;;;;;9.52;6.60;;;;;;;;;;5089194;28;20415;-73
2021/12/24 14:23:31;;;;;;;8.45;6.28;;;;;;;;;;5093003;28;20422;-73
2021/12/24 14:25:59;;;;;;;9.90;6.70;;;6.70;99.90;;;;;;5084677;28;20776;-73
2021/12/24 14:28:26;;;;;;;9.88;6.88;;;;;;;;;;5091852;28;20513;-73
2021/12/24 14:31:03;;;;;;;14.13;9.00;;;6.80;99.90;;;;;;5084529;28;21020;-74
2021/12/24 14:33:33;;;;;;;12.77;9.13;;;;;;;;;;5092541;28;20937;-73
2021/12/24 14:36:01;;;;;;;14.20;9.38;;;;;;;;;;5073543;28;20427;-73
2021/12/24 14:38:27;;;;;;;14.18;7.75;;;;;;;;;;5086764;28;20417;-73
2021/12/24 14:40:59;;;;;;;13.77;7.60;;;6.80;99.90;;;;;;5099262;28;20777;-73
2021/12/24 14:43:25;;;;;;;12.70;7.93;;;;;;;;;;5099142;28;20954;-73
2021/12/24 14:45:52;;;;;;;12.52;7.72;;;;;;;;;;5088705;28;20502;-73
2021/12/24 14:48:21;;;;;;;14.18;8.10;;;;;;;;;;5091005;28;20501;-73
2021/12/24 14:50:48;;;;;;;10.57;7.00;;;;;;;;;;5102105;28;20420;-73
2021/12/24 14:53:17;;;;;;;7.67;4.50;;;;;;;;;;5092696;28;20431;-74
2021/12/24 14:55:50;;;;;;;9.43;4.28;;;;;;;;;;5077877;28;20421;-74
2021/12/24 14:58:37;;;;;;;7.38;4.43;;;;;;;;;;5083214;28;20429;-73
2021/12/24 15:01:05;;;;;;;7.47;4.53;;;;;;;;;;5088014;28;20463;-73
2021/12/24 15:03:33;;;;;;;9.60;5.43;;;;;;;;;;5081989;28;20578;-74
2021/12/24 15:05:59;;;;;;;11.55;6.07;;;;;;;;;;5071618;28;20411;-73
2021/12/24 15:08:33;;;;;;;7.57;2.83;;;;;;;;;;5093968;28;20500;-74
2021/12/24 15:10:59;;;;;;;7.40;2.53;;;;;;;;;;5088897;28;20403;-73
2021/12/24 15:13:27;;;;;;;4.90;2.20;;;;;;;;;;5094062;28;20428;-73
2021/12/24 15:15:54;;;;;;;4.63;2.25;;;;;;;;;;5066132;28;20445;-71
2021/12/24 15:18:20;;;;;;;4.25;1.80;;;;;;;;;;5075328;28;20420;-74
2021/12/24 15:20:46;;;;;;;6.95;2.13;;;;;;;;;;5096324;28;20455;-75
2021/12/24 15:23:14;;;;;;;4.53;2.00;;;;;;;;;;5091964;28;20412;-74
2021/12/24 15:25:41;;;;;;;5.95;1.90;;;;;;;;;;5104829;28;20452;-74
2021/12/24 15:28:10;;;;;;;5.07;1.50;;;;;;;;;;5087813;28;20429;-74
2021/12/24 15:30:36;;;;;;;3.20;1.50;;;;;;;;;;5091731;28;20445;-75
2021/12/24 15:33:03;;;;;;;6.55;1.50;;;;;;;;;;5098119;28;20412;-75
2021/12/24 15:35:29;;;;;;;6.28;1.38;;;;;;;;;;5101314;28;20419;-75
2021/12/24 15:37:56;;;;;;;5.97;1.65;;;;;;;;;;5071436;28;20795;-75
2021/12/24 15:40:22;;;;;;;10.00;4.53;;;;;;;;;;5091041;28;20806;-74
2021/12/24 15:42:49;;;;;;;7.68;3.05;;;;;;;;;;5087674;28;20443;-72
2021/12/24 15:45:15;;;;;;;6.68;2.40;;;;;;;;;;5078739;28;20421;-74
2021/12/24 15:47:41;;;;;;;7.88;2.58;;;;;;;;;;5110401;28;20422;-74
2021/12/24 15:50:08;;;;;;;5.85;1.70;;;;;;;;;;5082619;28;20934;-74
2021/12/24 15:52:35;;;;;;;4.80;1.80;;;;;;;;;;5102505;28;20751;-74
2021/12/24 15:55:01;;;;;;;5.00;1.77;;;;;;;;;;5074079;28;20824;-73
2021/12/24 15:57:27;;;;;;;6.20;1.80;;;;;;;;;;5100142;28;20491;-74
2021/12/24 15:59:53;;;;;;;5.32;1.70;;;;;;;;;;5081586;28;20733;-76
2021/12/24 16:02:19;;;;;;;4.05;1.60;;;;;;;;;;5072029;28;20423;-74
2021/12/24 16:04:45;;;;;;;5.53;2.00;;;;;;;;;;5096207;28;20504;-75
2021/12/24 16:07:11;;;;;;;8.60;2.10;;;;;;;;;;5098670;28;20787;-73
2021/12/24 16:09:38;;;;;;;7.35;2.10;;;;;;;;;;5077649;28;20423;-74
2021/12/24 16:12:04;;;;;;;6.18;2.00;;;;;;;;;;5087605;28;20824;-75
2021/12/24 16:14:30;;;;;;;7.70;2.78;;;;;;;;;;5084259;28;20461;-75
2021/12/24 16:16:56;;;;;;;7.40;2.67;;;;;;;;;;5096309;28;20425;-74